sensor_id;sensor_type;location;lat;lon;timestamp;P1;durP1;ratioP1;P2;durP2;ratioP2
1569;SDS011;778;50.120;8.698;2024-02-28T00:00:30;21.30;;;17.20;;
1569;SDS011;778;50.120;8.698;2024-02-28T00:02:59;20.33;;;14.60;;
1569;SDS011;778;50.120;8.698;2024-02-28T00:05:28;18.37;;;16.13;;
1569;SDS011;778;50.120;8.698;2024-02-28T00:07:56;21.40;;;15.23;;
1569;SDS011;778;50.120;8.698;2024-02-28T00:10:26;21.60;;;17.20;;
1569;SDS011;778;50.120;8.698;2024-02-28T00:12:54;21.80;;;16.30;;
1569;SDS011;778;50.120;8.698;2024-02-28T00:15:24;18.63;;;15.77;;
1569;SDS011;778;50.120;8.698;2024-02-28T00:17:53;22.70;;;18.87;;
1569;SDS011;778;50.120;8.698;2024-02-28T00:20:23;23.97;;;18.53;;
1569;SDS011;778;50.120;8.698;2024-02-28T00:22:53;19.17;;;16.13;;
1569;SDS011;778;50.120;8.698;2024-02-28T00:25:22;20.00;;;16.20;;
1569;SDS011;778;50.120;8.698;2024-02-28T00:27:51;21.03;;;16.13;;
1569;SDS011;778;50.120;8.698;2024-02-28T00:30:19;22.57;;;17.63;;
1569;SDS011;778;50.120;8.698;2024-02-28T00:32:50;21.30;;;17.90;;
1569;SDS011;778;50.120;8.698;2024-02-28T00:35:19;21.43;;;17.00;;
1569;SDS011;778;50.120;8.698;2024-02-28T00:37:48;20.87;;;17.80;;
1569;SDS011;778;50.120;8.698;2024-02-28T00:40:17;22.30;;;15.60;;
1569;SDS011;778;50.120;8.698;2024-02-28T00:42:45;20.43;;;16.53;;
1569;SDS011;778;50.120;8.698;2024-02-28T00:45:14;20.73;;;14.73;;
1569;SDS011;778;50.120;8.698;2024-02-28T00:47:44;22.20;;;16.20;;
1569;SDS011;778;50.120;8.698;2024-02-28T00:50:14;20.80;;;16.20;;
1569;SDS011;778;50.120;8.698;2024-02-28T00:52:43;20.73;;;16.90;;
1569;SDS011;778;50.120;8.698;2024-02-28T00:55:11;21.83;;;17.17;;
1569;SDS011;778;50.120;8.698;2024-02-28T00:57:40;22.03;;;17.67;;
1569;SDS011;778;50.120;8.698;2024-02-28T01:00:09;20.77;;;15.70;;
1569;SDS011;778;50.120;8.698;2024-02-28T01:02:39;19.13;;;15.57;;
1569;SDS011;778;50.120;8.698;2024-02-28T01:05:08;28.33;;;18.37;;
1569;SDS011;778;50.120;8.698;2024-02-28T01:07:39;23.87;;;18.47;;
1569;SDS011;778;50.120;8.698;2024-02-28T01:10:07;21.77;;;18.07;;
1569;SDS011;778;50.120;8.698;2024-02-28T01:12:37;24.27;;;17.17;;
1569;SDS011;778;50.120;8.698;2024-02-28T01:15:06;24.10;;;18.87;;
1569;SDS011;778;50.120;8.698;2024-02-28T01:17:36;24.20;;;19.20;;
1569;SDS011;778;50.120;8.698;2024-02-28T01:20:06;23.83;;;16.40;;
1569;SDS011;778;50.120;8.698;2024-02-28T01:22:35;20.57;;;16.67;;
1569;SDS011;778;50.120;8.698;2024-02-28T01:25:05;26.13;;;18.30;;
1569;SDS011;778;50.120;8.698;2024-02-28T01:27:34;23.97;;;17.90;;
1569;SDS011;778;50.120;8.698;2024-02-28T01:30:04;23.27;;;19.07;;
1569;SDS011;778;50.120;8.698;2024-02-28T01:32:33;24.77;;;16.27;;
1569;SDS011;778;50.120;8.698;2024-02-28T01:35:02;23.10;;;18.03;;
1569;SDS011;778;50.120;8.698;2024-02-28T01:37:31;23.90;;;17.67;;
1569;SDS011;778;50.120;8.698;2024-02-28T01:40:00;25.27;;;17.73;;
1569;SDS011;778;50.120;8.698;2024-02-28T01:42:32;24.00;;;17.63;;
1569;SDS011;778;50.120;8.698;2024-02-28T01:45:01;28.13;;;17.67;;
1569;SDS011;778;50.120;8.698;2024-02-28T01:47:29;24.20;;;17.53;;
1569;SDS011;778;50.120;8.698;2024-02-28T01:49:58;22.17;;;17.20;;
1569;SDS011;778;50.120;8.698;2024-02-28T01:52:27;23.73;;;17.10;;
1569;SDS011;778;50.120;8.698;2024-02-28T01:54:56;26.90;;;18.80;;
1569;SDS011;778;50.120;8.698;2024-02-28T01:57:25;25.47;;;17.70;;
1569;SDS011;778;50.120;8.698;2024-02-28T01:59:55;23.63;;;16.87;;
1569;SDS011;778;50.120;8.698;2024-02-28T02:02:24;25.43;;;17.97;;
1569;SDS011;778;50.120;8.698;2024-02-28T02:04:54;21.20;;;16.80;;
1569;SDS011;778;50.120;8.698;2024-02-28T02:07:24;21.10;;;16.10;;
1569;SDS011;778;50.120;8.698;2024-02-28T02:09:53;22.20;;;16.83;;
1569;SDS011;778;50.120;8.698;2024-02-28T02:12:22;24.87;;;17.60;;
1569;SDS011;778;50.120;8.698;2024-02-28T02:14:51;23.03;;;17.97;;
1569;SDS011;778;50.120;8.698;2024-02-28T02:17:21;24.37;;;18.37;;
1569;SDS011;778;50.120;8.698;2024-02-28T02:19:50;22.97;;;16.50;;
1569;SDS011;778;50.120;8.698;2024-02-28T02:22:20;24.23;;;17.27;;
1569;SDS011;778;50.120;8.698;2024-02-28T02:24:51;23.90;;;17.60;;
1569;SDS011;778;50.120;8.698;2024-02-28T02:27:19;26.70;;;19.17;;
1569;SDS011;778;50.120;8.698;2024-02-28T02:29:48;23.83;;;17.33;;
1569;SDS011;778;50.120;8.698;2024-02-28T02:32:17;23.70;;;16.93;;
1569;SDS011;778;50.120;8.698;2024-02-28T02:34:46;25.60;;;16.77;;
1569;SDS011;778;50.120;8.698;2024-02-28T02:37:14;23.90;;;16.40;;
1569;SDS011;778;50.120;8.698;2024-02-28T02:39:43;26.27;;;18.97;;
1569;SDS011;778;50.120;8.698;2024-02-28T02:42:13;28.27;;;16.87;;
1569;SDS011;778;50.120;8.698;2024-02-28T02:44:42;25.33;;;18.47;;
1569;SDS011;778;50.120;8.698;2024-02-28T02:47:11;28.03;;;19.27;;
1569;SDS011;778;50.120;8.698;2024-02-28T02:49:39;24.30;;;18.13;;
1569;SDS011;778;50.120;8.698;2024-02-28T02:52:08;24.73;;;18.80;;
1569;SDS011;778;50.120;8.698;2024-02-28T02:54:37;25.60;;;17.77;;
1569;SDS011;778;50.120;8.698;2024-02-28T02:57:06;24.63;;;17.87;;
1569;SDS011;778;50.120;8.698;2024-02-28T02:59:37;26.33;;;18.57;;
1569;SDS011;778;50.120;8.698;2024-02-28T03:02:05;24.47;;;18.30;;
1569;SDS011;778;50.120;8.698;2024-02-28T03:04:34;26.23;;;19.43;;
1569;SDS011;778;50.120;8.698;2024-02-28T03:07:03;25.87;;;18.27;;
1569;SDS011;778;50.120;8.698;2024-02-28T03:09:31;24.57;;;17.77;;
1569;SDS011;778;50.120;8.698;2024-02-28T03:12:01;28.57;;;20.03;;
1569;SDS011;778;50.120;8.698;2024-02-28T03:14:30;27.13;;;19.10;;
1569;SDS011;778;50.120;8.698;2024-02-28T03:17:00;24.03;;;18.27;;
1569;SDS011;778;50.120;8.698;2024-02-28T03:19:29;26.87;;;18.80;;
1569;SDS011;778;50.120;8.698;2024-02-28T03:21:57;23.83;;;18.00;;
1569;SDS011;778;50.120;8.698;2024-02-28T03:24:26;24.70;;;17.97;;
1569;SDS011;778;50.120;8.698;2024-02-28T03:26:55;25.33;;;19.00;;
1569;SDS011;778;50.120;8.698;2024-02-28T03:29:24;27.37;;;17.77;;
1569;SDS011;778;50.120;8.698;2024-02-28T03:31:52;25.90;;;18.57;;
1569;SDS011;778;50.120;8.698;2024-02-28T03:34:22;27.07;;;18.50;;
1569;SDS011;778;50.120;8.698;2024-02-28T03:36:51;26.73;;;19.60;;
1569;SDS011;778;50.120;8.698;2024-02-28T03:39:20;24.90;;;17.67;;
1569;SDS011;778;50.120;8.698;2024-02-28T03:41:49;26.50;;;18.77;;
1569;SDS011;778;50.120;8.698;2024-02-28T03:44:17;26.67;;;18.43;;
1569;SDS011;778;50.120;8.698;2024-02-28T03:46:48;26.50;;;17.87;;
1569;SDS011;778;50.120;8.698;2024-02-28T03:49:16;28.57;;;18.53;;
1569;SDS011;778;50.120;8.698;2024-02-28T03:51:46;25.40;;;19.10;;
1569;SDS011;778;50.120;8.698;2024-02-28T03:54:15;29.60;;;21.27;;
1569;SDS011;778;50.120;8.698;2024-02-28T03:56:44;30.30;;;20.33;;
1569;SDS011;778;50.120;8.698;2024-02-28T03:59:13;31.13;;;19.40;;
1569;SDS011;778;50.120;8.698;2024-02-28T04:01:41;32.80;;;18.37;;
1569;SDS011;778;50.120;8.698;2024-02-28T04:04:10;27.43;;;19.20;;
1569;SDS011;778;50.120;8.698;2024-02-28T04:06:39;28.20;;;19.10;;
1569;SDS011;778;50.120;8.698;2024-02-28T04:09:09;27.93;;;20.13;;
1569;SDS011;778;50.120;8.698;2024-02-28T04:11:38;31.03;;;20.70;;
1569;SDS011;778;50.120;8.698;2024-02-28T04:14:08;28.93;;;19.80;;
1569;SDS011;778;50.120;8.698;2024-02-28T04:16:40;32.73;;;20.20;;
1569;SDS011;778;50.120;8.698;2024-02-28T04:19:10;26.90;;;20.93;;
1569;SDS011;778;50.120;8.698;2024-02-28T04:21:39;26.97;;;19.50;;
1569;SDS011;778;50.120;8.698;2024-02-28T04:24:09;30.70;;;20.73;;
1569;SDS011;778;50.120;8.698;2024-02-28T04:26:41;31.93;;;22.80;;
1569;SDS011;778;50.120;8.698;2024-02-28T04:29:10;32.20;;;21.80;;
1569;SDS011;778;50.120;8.698;2024-02-28T04:31:41;31.30;;;21.23;;
1569;SDS011;778;50.120;8.698;2024-02-28T04:34:09;30.57;;;20.70;;
1569;SDS011;778;50.120;8.698;2024-02-28T04:36:38;29.70;;;19.77;;
1569;SDS011;778;50.120;8.698;2024-02-28T04:39:08;34.17;;;23.40;;
1569;SDS011;778;50.120;8.698;2024-02-28T04:41:37;35.57;;;21.77;;
1569;SDS011;778;50.120;8.698;2024-02-28T04:44:05;35.67;;;21.37;;
1569;SDS011;778;50.120;8.698;2024-02-28T04:46:34;34.17;;;24.87;;
1569;SDS011;778;50.120;8.698;2024-02-28T04:49:04;36.73;;;23.40;;
1569;SDS011;778;50.120;8.698;2024-02-28T04:51:35;36.60;;;24.40;;
1569;SDS011;778;50.120;8.698;2024-02-28T04:54:03;38.87;;;23.43;;
1569;SDS011;778;50.120;8.698;2024-02-28T04:56:38;37.17;;;25.00;;
1569;SDS011;778;50.120;8.698;2024-02-28T04:59:07;33.80;;;24.33;;
1569;SDS011;778;50.120;8.698;2024-02-28T05:01:36;34.50;;;22.80;;
1569;SDS011;778;50.120;8.698;2024-02-28T05:04:06;35.63;;;24.90;;
1569;SDS011;778;50.120;8.698;2024-02-28T05:06:35;30.90;;;21.30;;
1569;SDS011;778;50.120;8.698;2024-02-28T05:09:06;35.90;;;23.30;;
1569;SDS011;778;50.120;8.698;2024-02-28T05:11:36;36.07;;;23.23;;
1569;SDS011;778;50.120;8.698;2024-02-28T05:14:05;34.43;;;22.97;;
1569;SDS011;778;50.120;8.698;2024-02-28T05:16:34;41.80;;;23.87;;
1569;SDS011;778;50.120;8.698;2024-02-28T05:19:02;36.43;;;23.23;;
1569;SDS011;778;50.120;8.698;2024-02-28T05:21:38;36.07;;;25.23;;
1569;SDS011;778;50.120;8.698;2024-02-28T05:24:08;40.20;;;26.00;;
1569;SDS011;778;50.120;8.698;2024-02-28T05:26:38;37.40;;;23.07;;
1569;SDS011;778;50.120;8.698;2024-02-28T05:29:07;34.80;;;23.33;;
1569;SDS011;778;50.120;8.698;2024-02-28T05:31:36;31.63;;;21.67;;
1569;SDS011;778;50.120;8.698;2024-02-28T05:34:05;34.00;;;23.20;;
1569;SDS011;778;50.120;8.698;2024-02-28T05:36:33;42.43;;;25.90;;
1569;SDS011;778;50.120;8.698;2024-02-28T05:39:02;36.17;;;23.40;;
1569;SDS011;778;50.120;8.698;2024-02-28T05:41:32;38.37;;;23.60;;
1569;SDS011;778;50.120;8.698;2024-02-28T05:44:02;36.67;;;23.83;;
1569;SDS011;778;50.120;8.698;2024-02-28T05:46:31;38.77;;;23.97;;
1569;SDS011;778;50.120;8.698;2024-02-28T05:48:59;39.10;;;25.20;;
1569;SDS011;778;50.120;8.698;2024-02-28T05:51:28;37.97;;;25.20;;
1569;SDS011;778;50.120;8.698;2024-02-28T05:53:57;41.77;;;25.27;;
1569;SDS011;778;50.120;8.698;2024-02-28T05:56:26;40.50;;;26.13;;
1569;SDS011;778;50.120;8.698;2024-02-28T05:58:54;38.20;;;24.13;;
1569;SDS011;778;50.120;8.698;2024-02-28T06:01:24;36.37;;;25.13;;
1569;SDS011;778;50.120;8.698;2024-02-28T06:03:53;39.97;;;25.77;;
1569;SDS011;778;50.120;8.698;2024-02-28T06:06:22;39.93;;;24.20;;
1569;SDS011;778;50.120;8.698;2024-02-28T06:08:52;37.93;;;24.20;;
1569;SDS011;778;50.120;8.698;2024-02-28T06:11:22;44.60;;;25.87;;
1569;SDS011;778;50.120;8.698;2024-02-28T06:13:51;41.50;;;27.30;;
1569;SDS011;778;50.120;8.698;2024-02-28T06:16:20;38.77;;;26.17;;
1569;SDS011;778;50.120;8.698;2024-02-28T06:18:50;37.57;;;25.20;;
1569;SDS011;778;50.120;8.698;2024-02-28T06:21:21;40.50;;;26.13;;
1569;SDS011;778;50.120;8.698;2024-02-28T06:23:50;48.30;;;29.13;;
1569;SDS011;778;50.120;8.698;2024-02-28T06:26:19;42.80;;;27.10;;
1569;SDS011;778;50.120;8.698;2024-02-28T06:28:47;39.20;;;24.40;;
1569;SDS011;778;50.120;8.698;2024-02-28T06:31:17;40.50;;;26.57;;
1569;SDS011;778;50.120;8.698;2024-02-28T06:33:47;46.60;;;27.37;;
1569;SDS011;778;50.120;8.698;2024-02-28T06:36:17;42.20;;;26.57;;
1569;SDS011;778;50.120;8.698;2024-02-28T06:38:45;36.23;;;24.97;;
1569;SDS011;778;50.120;8.698;2024-02-28T06:41:14;40.80;;;25.93;;
1569;SDS011;778;50.120;8.698;2024-02-28T06:43:43;45.10;;;27.63;;
1569;SDS011;778;50.120;8.698;2024-02-28T06:46:13;45.17;;;27.17;;
1569;SDS011;778;50.120;8.698;2024-02-28T06:48:41;41.00;;;27.07;;
1569;SDS011;778;50.120;8.698;2024-02-28T06:51:11;46.83;;;28.80;;
1569;SDS011;778;50.120;8.698;2024-02-28T06:53:43;43.50;;;28.27;;
1569;SDS011;778;50.120;8.698;2024-02-28T06:56:12;40.30;;;28.10;;
1569;SDS011;778;50.120;8.698;2024-02-28T06:58:41;56.80;;;31.43;;
1569;SDS011;778;50.120;8.698;2024-02-28T07:01:10;50.03;;;27.43;;
1569;SDS011;778;50.120;8.698;2024-02-28T07:03:39;42.80;;;28.00;;
1569;SDS011;778;50.120;8.698;2024-02-28T07:06:07;40.07;;;26.83;;
1569;SDS011;778;50.120;8.698;2024-02-28T07:08:38;44.43;;;27.77;;
1569;SDS011;778;50.120;8.698;2024-02-28T07:11:12;43.30;;;28.30;;
1569;SDS011;778;50.120;8.698;2024-02-28T07:13:42;44.27;;;30.33;;
1569;SDS011;778;50.120;8.698;2024-02-28T07:16:10;45.33;;;27.70;;
1569;SDS011;778;50.120;8.698;2024-02-28T07:18:39;37.80;;;26.20;;
1569;SDS011;778;50.120;8.698;2024-02-28T07:21:08;45.30;;;27.00;;
1569;SDS011;778;50.120;8.698;2024-02-28T07:23:39;44.80;;;29.60;;
1569;SDS011;778;50.120;8.698;2024-02-28T07:26:13;39.47;;;25.80;;
1569;SDS011;778;50.120;8.698;2024-02-28T07:28:52;37.60;;;26.90;;
1569;SDS011;778;50.120;8.698;2024-02-28T07:31:21;37.53;;;26.97;;
1569;SDS011;778;50.120;8.698;2024-02-28T07:33:50;40.37;;;27.03;;
1569;SDS011;778;50.120;8.698;2024-02-28T07:36:19;40.57;;;26.70;;
1569;SDS011;778;50.120;8.698;2024-02-28T07:38:50;42.63;;;25.20;;
1569;SDS011;778;50.120;8.698;2024-02-28T07:41:19;39.40;;;26.60;;
1569;SDS011;778;50.120;8.698;2024-02-28T07:43:49;43.97;;;27.33;;
1569;SDS011;778;50.120;8.698;2024-02-28T07:46:17;36.10;;;24.67;;
1569;SDS011;778;50.120;8.698;2024-02-28T07:48:46;39.70;;;26.27;;
1569;SDS011;778;50.120;8.698;2024-02-28T07:51:15;43.73;;;27.33;;
1569;SDS011;778;50.120;8.698;2024-02-28T07:53:46;40.13;;;25.90;;
1569;SDS011;778;50.120;8.698;2024-02-28T07:56:19;41.07;;;26.67;;
1569;SDS011;778;50.120;8.698;2024-02-28T07:58:47;45.17;;;25.10;;
1569;SDS011;778;50.120;8.698;2024-02-28T08:01:16;45.43;;;26.17;;
1569;SDS011;778;50.120;8.698;2024-02-28T08:03:45;44.03;;;25.57;;
1569;SDS011;778;50.120;8.698;2024-02-28T08:06:14;39.10;;;26.20;;
1569;SDS011;778;50.120;8.698;2024-02-28T08:08:43;39.73;;;26.70;;
1569;SDS011;778;50.120;8.698;2024-02-28T08:11:13;31.60;;;22.67;;
1569;SDS011;778;50.120;8.698;2024-02-28T08:13:43;37.63;;;25.53;;
1569;SDS011;778;50.120;8.698;2024-02-28T08:16:12;31.87;;;21.60;;
1569;SDS011;778;50.120;8.698;2024-02-28T08:18:41;37.53;;;24.63;;
1569;SDS011;778;50.120;8.698;2024-02-28T08:21:11;35.30;;;22.47;;
1569;SDS011;778;50.120;8.698;2024-02-28T08:23:39;37.70;;;23.00;;
1569;SDS011;778;50.120;8.698;2024-02-28T08:26:08;34.30;;;23.00;;
1569;SDS011;778;50.120;8.698;2024-02-28T08:28:38;34.53;;;21.77;;
1569;SDS011;778;50.120;8.698;2024-02-28T08:31:08;34.13;;;23.03;;
1569;SDS011;778;50.120;8.698;2024-02-28T08:33:37;32.23;;;22.60;;
1569;SDS011;778;50.120;8.698;2024-02-28T08:36:06;33.23;;;21.37;;
1569;SDS011;778;50.120;8.698;2024-02-28T08:38:35;31.23;;;21.20;;
1569;SDS011;778;50.120;8.698;2024-02-28T08:41:05;32.83;;;21.67;;
1569;SDS011;778;50.120;8.698;2024-02-28T08:43:37;31.10;;;20.37;;
1569;SDS011;778;50.120;8.698;2024-02-28T08:46:07;35.83;;;22.60;;
1569;SDS011;778;50.120;8.698;2024-02-28T08:48:36;35.50;;;22.30;;
1569;SDS011;778;50.120;8.698;2024-02-28T08:51:06;29.43;;;20.90;;
1569;SDS011;778;50.120;8.698;2024-02-28T08:53:35;31.63;;;21.27;;
1569;SDS011;778;50.120;8.698;2024-02-28T08:56:04;34.20;;;23.20;;
1569;SDS011;778;50.120;8.698;2024-02-28T08:58:33;29.00;;;19.90;;
1569;SDS011;778;50.120;8.698;2024-02-28T09:01:04;28.90;;;19.70;;
1569;SDS011;778;50.120;8.698;2024-02-28T09:03:34;25.50;;;17.73;;
1569;SDS011;778;50.120;8.698;2024-02-28T09:06:03;28.50;;;18.50;;
1569;SDS011;778;50.120;8.698;2024-02-28T09:08:32;26.37;;;18.73;;
1569;SDS011;778;50.120;8.698;2024-02-28T09:11:01;24.03;;;16.90;;
1569;SDS011;778;50.120;8.698;2024-02-28T09:13:31;25.57;;;18.80;;
1569;SDS011;778;50.120;8.698;2024-02-28T09:16:02;25.20;;;18.83;;
1569;SDS011;778;50.120;8.698;2024-02-28T09:18:31;28.87;;;20.90;;
1569;SDS011;778;50.120;8.698;2024-02-28T09:21:02;26.83;;;20.57;;
1569;SDS011;778;50.120;8.698;2024-02-28T09:23:31;31.77;;;20.07;;
1569;SDS011;778;50.120;8.698;2024-02-28T09:26:02;27.30;;;19.80;;
1569;SDS011;778;50.120;8.698;2024-02-28T09:28:31;30.97;;;20.20;;
1569;SDS011;778;50.120;8.698;2024-02-28T09:31:00;31.67;;;20.23;;
1569;SDS011;778;50.120;8.698;2024-02-28T09:33:32;31.37;;;20.60;;
1569;SDS011;778;50.120;8.698;2024-02-28T09:36:03;32.40;;;21.13;;
1569;SDS011;778;50.120;8.698;2024-02-28T09:38:32;32.30;;;20.67;;
1569;SDS011;778;50.120;8.698;2024-02-28T09:41:01;31.90;;;19.47;;
1569;SDS011;778;50.120;8.698;2024-02-28T09:43:31;32.73;;;21.40;;
1569;SDS011;778;50.120;8.698;2024-02-28T09:46:03;29.33;;;18.67;;
1569;SDS011;778;50.120;8.698;2024-02-28T09:48:32;32.90;;;19.70;;
1569;SDS011;778;50.120;8.698;2024-02-28T09:51:03;33.63;;;21.97;;
1569;SDS011;778;50.120;8.698;2024-02-28T09:53:31;28.93;;;20.10;;
1569;SDS011;778;50.120;8.698;2024-02-28T09:56:00;28.80;;;20.87;;
1569;SDS011;778;50.120;8.698;2024-02-28T09:58:29;32.17;;;21.70;;
1569;SDS011;778;50.120;8.698;2024-02-28T10:00:59;28.00;;;20.57;;
1569;SDS011;778;50.120;8.698;2024-02-28T10:03:30;33.37;;;22.70;;
1569;SDS011;778;50.120;8.698;2024-02-28T10:05:59;31.33;;;21.40;;
1569;SDS011;778;50.120;8.698;2024-02-28T10:08:32;30.97;;;21.83;;
1569;SDS011;778;50.120;8.698;2024-02-28T10:11:03;32.93;;;21.30;;
1569;SDS011;778;50.120;8.698;2024-02-28T10:13:32;31.60;;;22.20;;
1569;SDS011;778;50.120;8.698;2024-02-28T10:16:01;33.10;;;21.40;;
1569;SDS011;778;50.120;8.698;2024-02-28T10:18:31;32.97;;;23.17;;
1569;SDS011;778;50.120;8.698;2024-02-28T10:20:59;31.07;;;22.13;;
1569;SDS011;778;50.120;8.698;2024-02-28T10:23:29;37.23;;;24.10;;
1569;SDS011;778;50.120;8.698;2024-02-28T10:26:00;32.63;;;22.03;;
1569;SDS011;778;50.120;8.698;2024-02-28T10:28:30;33.60;;;21.20;;
1569;SDS011;778;50.120;8.698;2024-02-28T10:30:58;33.67;;;22.30;;
1569;SDS011;778;50.120;8.698;2024-02-28T10:33:28;34.97;;;22.70;;
1569;SDS011;778;50.120;8.698;2024-02-28T10:35:57;29.73;;;19.50;;
1569;SDS011;778;50.120;8.698;2024-02-28T10:38:27;34.27;;;21.77;;
1569;SDS011;778;50.120;8.698;2024-02-28T10:40:56;33.07;;;22.03;;
1569;SDS011;778;50.120;8.698;2024-02-28T10:43:26;36.90;;;21.80;;
1569;SDS011;778;50.120;8.698;2024-02-28T10:45:57;34.93;;;23.17;;
1569;SDS011;778;50.120;8.698;2024-02-28T10:48:28;32.73;;;22.07;;
1569;SDS011;778;50.120;8.698;2024-02-28T10:50:57;34.40;;;23.20;;
1569;SDS011;778;50.120;8.698;2024-02-28T10:53:29;33.33;;;21.60;;
1569;SDS011;778;50.120;8.698;2024-02-28T10:56:03;35.33;;;23.00;;
1569;SDS011;778;50.120;8.698;2024-02-28T10:58:35;35.13;;;22.43;;
1569;SDS011;778;50.120;8.698;2024-02-28T11:01:04;32.47;;;21.23;;
1569;SDS011;778;50.120;8.698;2024-02-28T11:03:33;33.13;;;22.67;;
1569;SDS011;778;50.120;8.698;2024-02-28T11:06:02;33.50;;;23.50;;
1569;SDS011;778;50.120;8.698;2024-02-28T11:08:32;29.60;;;22.60;;
1569;SDS011;778;50.120;8.698;2024-02-28T11:11:02;30.33;;;20.83;;
1569;SDS011;778;50.120;8.698;2024-02-28T11:13:31;29.07;;;21.40;;
1569;SDS011;778;50.120;8.698;2024-02-28T11:16:08;31.20;;;21.87;;
1569;SDS011;778;50.120;8.698;2024-02-28T11:18:47;29.70;;;23.00;;
1569;SDS011;778;50.120;8.698;2024-02-28T11:21:16;28.17;;;20.73;;
1569;SDS011;778;50.120;8.698;2024-02-28T11:23:45;31.23;;;23.63;;
1569;SDS011;778;50.120;8.698;2024-02-28T11:26:14;27.10;;;20.67;;
1569;SDS011;778;50.120;8.698;2024-02-28T11:28:44;31.03;;;22.13;;
1569;SDS011;778;50.120;8.698;2024-02-28T11:31:14;26.07;;;20.97;;
1569;SDS011;778;50.120;8.698;2024-02-28T11:33:45;30.70;;;22.23;;
1569;SDS011;778;50.120;8.698;2024-02-28T11:36:14;27.70;;;20.60;;
1569;SDS011;778;50.120;8.698;2024-02-28T11:38:43;29.47;;;21.03;;
1569;SDS011;778;50.120;8.698;2024-02-28T11:41:12;26.77;;;20.70;;
1569;SDS011;778;50.120;8.698;2024-02-28T11:43:41;27.03;;;20.87;;
1569;SDS011;778;50.120;8.698;2024-02-28T11:46:19;26.03;;;19.77;;
1569;SDS011;778;50.120;8.698;2024-02-28T11:48:48;26.30;;;21.73;;
1569;SDS011;778;50.120;8.698;2024-02-28T11:51:16;27.47;;;21.17;;
1569;SDS011;778;50.120;8.698;2024-02-28T11:53:45;27.30;;;21.20;;
1569;SDS011;778;50.120;8.698;2024-02-28T11:56:14;24.33;;;18.77;;
1569;SDS011;778;50.120;8.698;2024-02-28T11:58:50;30.50;;;22.47;;
1569;SDS011;778;50.120;8.698;2024-02-28T12:01:31;31.40;;;22.57;;
1569;SDS011;778;50.120;8.698;2024-02-28T12:04:04;28.03;;;21.00;;
1569;SDS011;778;50.120;8.698;2024-02-28T12:06:33;28.50;;;20.77;;
1569;SDS011;778;50.120;8.698;2024-02-28T12:09:03;27.70;;;19.93;;
1569;SDS011;778;50.120;8.698;2024-02-28T12:11:35;27.57;;;20.93;;
1569;SDS011;778;50.120;8.698;2024-02-28T12:14:04;30.23;;;21.60;;
1569;SDS011;778;50.120;8.698;2024-02-28T12:16:37;27.30;;;21.07;;
1569;SDS011;778;50.120;8.698;2024-02-28T12:19:06;27.57;;;20.87;;
1569;SDS011;778;50.120;8.698;2024-02-28T12:21:36;31.07;;;22.30;;
1569;SDS011;778;50.120;8.698;2024-02-28T12:24:06;26.67;;;20.30;;
1569;SDS011;778;50.120;8.698;2024-02-28T12:26:36;24.57;;;20.33;;
1569;SDS011;778;50.120;8.698;2024-02-28T12:29:06;26.57;;;21.30;;
1569;SDS011;778;50.120;8.698;2024-02-28T12:31:37;25.80;;;20.40;;
1569;SDS011;778;50.120;8.698;2024-02-28T12:34:06;25.00;;;19.50;;
1569;SDS011;778;50.120;8.698;2024-02-28T12:36:35;27.50;;;21.43;;
1569;SDS011;778;50.120;8.698;2024-02-28T12:39:04;26.20;;;19.63;;
1569;SDS011;778;50.120;8.698;2024-02-28T12:41:33;26.00;;;19.77;;
1569;SDS011;778;50.120;8.698;2024-02-28T12:44:03;26.13;;;21.20;;
1569;SDS011;778;50.120;8.698;2024-02-28T12:46:32;28.47;;;21.07;;
1569;SDS011;778;50.120;8.698;2024-02-28T12:49:03;25.90;;;20.60;;
1569;SDS011;778;50.120;8.698;2024-02-28T12:51:36;23.13;;;18.93;;
1569;SDS011;778;50.120;8.698;2024-02-28T12:54:06;23.83;;;19.30;;
1569;SDS011;778;50.120;8.698;2024-02-28T12:56:35;27.03;;;20.07;;
1569;SDS011;778;50.120;8.698;2024-02-28T12:59:04;23.87;;;18.97;;
1569;SDS011;778;50.120;8.698;2024-02-28T13:01:33;25.70;;;20.33;;
1569;SDS011;778;50.120;8.698;2024-02-28T13:04:04;27.03;;;20.00;;
1569;SDS011;778;50.120;8.698;2024-02-28T13:06:33;23.93;;;18.07;;
1569;SDS011;778;50.120;8.698;2024-02-28T13:09:02;30.60;;;20.17;;
1569;SDS011;778;50.120;8.698;2024-02-28T13:11:33;30.70;;;19.30;;
1569;SDS011;778;50.120;8.698;2024-02-28T13:14:02;26.20;;;21.50;;
1569;SDS011;778;50.120;8.698;2024-02-28T13:16:31;25.93;;;18.30;;
1569;SDS011;778;50.120;8.698;2024-02-28T13:19:00;24.03;;;20.23;;
1569;SDS011;778;50.120;8.698;2024-02-28T13:21:30;22.30;;;18.10;;
1569;SDS011;778;50.120;8.698;2024-02-28T13:24:00;22.67;;;17.60;;
1569;SDS011;778;50.120;8.698;2024-02-28T13:26:30;22.33;;;17.43;;
1569;SDS011;778;50.120;8.698;2024-02-28T13:28:59;24.13;;;16.80;;
1569;SDS011;778;50.120;8.698;2024-02-28T13:31:28;21.20;;;17.17;;
1569;SDS011;778;50.120;8.698;2024-02-28T13:33:57;21.83;;;17.27;;
1569;SDS011;778;50.120;8.698;2024-02-28T13:36:26;25.23;;;18.60;;
1569;SDS011;778;50.120;8.698;2024-02-28T13:38:56;26.73;;;18.00;;
1569;SDS011;778;50.120;8.698;2024-02-28T13:41:25;26.13;;;21.07;;
1569;SDS011;778;50.120;8.698;2024-02-28T13:43:53;25.23;;;19.20;;
1569;SDS011;778;50.120;8.698;2024-02-28T13:46:22;22.43;;;18.20;;
1569;SDS011;778;50.120;8.698;2024-02-28T13:48:51;23.67;;;16.57;;
1569;SDS011;778;50.120;8.698;2024-02-28T13:51:20;25.43;;;18.43;;
1569;SDS011;778;50.120;8.698;2024-02-28T13:53:49;24.60;;;16.67;;
1569;SDS011;778;50.120;8.698;2024-02-28T13:56:22;25.63;;;19.17;;
1569;SDS011;778;50.120;8.698;2024-02-28T13:58:51;21.73;;;17.23;;
1569;SDS011;778;50.120;8.698;2024-02-28T14:01:20;19.90;;;16.13;;
1569;SDS011;778;50.120;8.698;2024-02-28T14:03:49;22.77;;;16.40;;
1569;SDS011;778;50.120;8.698;2024-02-28T14:06:17;20.90;;;16.37;;
1569;SDS011;778;50.120;8.698;2024-02-28T14:08:46;20.87;;;16.23;;
1569;SDS011;778;50.120;8.698;2024-02-28T14:11:15;21.67;;;17.47;;
1569;SDS011;778;50.120;8.698;2024-02-28T14:13:45;23.97;;;15.40;;
1569;SDS011;778;50.120;8.698;2024-02-28T14:16:14;22.93;;;17.53;;
1569;SDS011;778;50.120;8.698;2024-02-28T14:18:45;20.53;;;15.43;;
1569;SDS011;778;50.120;8.698;2024-02-28T14:21:14;19.23;;;14.63;;
1569;SDS011;778;50.120;8.698;2024-02-28T14:23:43;20.97;;;15.10;;
1569;SDS011;778;50.120;8.698;2024-02-28T14:26:12;19.70;;;14.93;;
1569;SDS011;778;50.120;8.698;2024-02-28T14:28:41;22.77;;;16.67;;
1569;SDS011;778;50.120;8.698;2024-02-28T14:31:11;22.30;;;15.20;;
1569;SDS011;778;50.120;8.698;2024-02-28T14:33:39;22.50;;;15.43;;
1569;SDS011;778;50.120;8.698;2024-02-28T14:36:08;20.47;;;14.73;;
1569;SDS011;778;50.120;8.698;2024-02-28T14:38:37;20.50;;;15.07;;
1569;SDS011;778;50.120;8.698;2024-02-28T14:41:07;18.60;;;14.63;;
1569;SDS011;778;50.120;8.698;2024-02-28T14:43:37;18.73;;;14.27;;
1569;SDS011;778;50.120;8.698;2024-02-28T14:46:05;19.10;;;14.20;;
1569;SDS011;778;50.120;8.698;2024-02-28T14:48:38;19.73;;;14.03;;
1569;SDS011;778;50.120;8.698;2024-02-28T14:51:08;17.87;;;12.53;;
1569;SDS011;778;50.120;8.698;2024-02-28T14:53:37;15.23;;;12.73;;
1569;SDS011;778;50.120;8.698;2024-02-28T14:56:06;20.03;;;12.57;;
1569;SDS011;778;50.120;8.698;2024-02-28T14:58:34;15.77;;;12.43;;
1569;SDS011;778;50.120;8.698;2024-02-28T15:01:04;18.13;;;13.20;;
1569;SDS011;778;50.120;8.698;2024-02-28T15:03:32;22.60;;;15.67;;
1569;SDS011;778;50.120;8.698;2024-02-28T15:06:06;16.07;;;12.83;;
1569;SDS011;778;50.120;8.698;2024-02-28T15:08:35;18.67;;;13.97;;
1569;SDS011;778;50.120;8.698;2024-02-28T15:11:04;21.90;;;15.60;;
1569;SDS011;778;50.120;8.698;2024-02-28T15:13:33;20.23;;;14.27;;